Time;durP1;ratioP1;P1;durP2;ratioP2;P2;SDS_P1;SDS_P2;PMS_P1;PMS_P2;Temp;Humidity;BMP_temperature;BMP_pressure;BME280_temperature;BME280_humidity;BME280_pressure;Samples;Min_cycle;Max_cycle;Signal;HPM_P1;HPM_P2
2024/01/01 00:01:55;;;;;;;14.05;5.32;;;9.50;99.90;;;;;;4140509;28;20038;-70
2024/01/01 00:03:55;;;;;;;;;;;9.60;99.90;;;;;;4138237;28;20050;-71
2024/01/01 00:05:56;;;;;;;12.88;5.18;;;9.60;99.90;;;;;;4140224;28;20433;-71
2024/01/01 00:07:57;;;;;;;9.05;4.82;;;9.60;99.90;;;;;;4140749;28;20041;-71
2024/01/01 00:09:58;;;;;;;14.07;4.90;;;9.60;99.90;;;;;;4141072;28;20068;-71
2024/01/01 00:11:58;;;;;;;9.93;4.65;;;9.60;99.90;;;;;;4137441;28;20038;-71
2024/01/01 00:13:59;;;;;;;12.68;4.70;;;9.60;99.90;;;;;;4139590;28;20088;-71
2024/01/01 00:15:59;;;;;;;8.13;4.28;;;9.60;99.90;;;;;;4136322;28;20125;-71
2024/01/01 00:18:00;;;;;;;14.35;5.03;;;9.60;99.90;;;;;;4141597;28;20541;-70
2024/01/01 00:20:01;;;;;;;18.15;5.63;;;9.70;99.90;;;;;;4140406;28;20049;-71
2024/01/01 00:22:02;;;;;;;13.00;5.60;;;9.70;99.90;;;;;;4139286;28;20065;-71
2024/01/01 00:24:04;;;;;;;13.85;5.90;;;9.70;99.90;;;;;;4139507;28;20863;-70
2024/01/01 00:26:05;;;;;;;17.23;5.93;;;9.70;99.90;;;;;;4137949;28;20089;-69
2024/01/01 00:28:06;;;;;;;14.80;6.20;;;9.60;99.90;;;;;;4140721;28;20052;-70
2024/01/01 00:30:07;;;;;;;15.85;5.82;;;9.70;99.90;;;;;;4137171;28;20129;-72
2024/01/01 00:32:08;;;;;;;11.98;5.50;;;9.70;99.90;;;;;;4140233;28;20036;-71
2024/01/01 00:34:09;;;;;;;16.27;6.35;;;9.60;99.90;;;;;;4139719;28;20077;-71
2024/01/01 00:36:09;;;;;;;14.00;5.45;;;9.70;99.90;;;;;;4138936;28;20095;-72
2024/01/01 00:38:10;;;;;;;15.43;6.10;;;9.70;99.90;;;;;;4136934;28;20077;-72
2024/01/01 00:40:11;;;;;;;13.55;5.93;;;9.70;99.90;;;;;;4134703;28;20130;-73
2024/01/01 00:42:12;;;;;;;17.60;6.65;;;9.70;99.90;;;;;;4132906;28;20112;-68
2024/01/01 00:44:12;;;;;;;14.82;6.75;;;9.70;99.90;;;;;;4136609;28;20395;-68
2024/01/01 00:46:13;;;;;;;18.92;6.68;;;9.70;99.90;;;;;;4133699;28;20079;-68
2024/01/01 00:48:13;;;;;;;17.75;6.35;;;9.70;99.90;;;;;;4140578;28;20053;-68
2024/01/01 00:50:14;;;;;;;18.80;7.25;;;9.70;99.90;;;;;;4153425;28;20045;-68
2024/01/01 00:52:15;;;;;;;17.05;6.95;;;9.60;99.90;;;;;;4137491;28;20486;-63
2024/01/01 00:54:15;;;;;;;13.77;7.05;;;9.70;99.90;;;;;;4136398;28;20046;-63
2024/01/01 00:56:16;;;;;;;21.80;9.75;;;9.60;99.90;;;;;;4127415;28;20046;-63
2024/01/01 00:58:16;;;;;;;17.52;8.13;;;9.70;99.90;;;;;;4135763;28;20063;-63
2024/01/01 01:00:17;;;;;;;15.15;7.88;;;9.60;99.90;;;;;;4135371;28;20145;-63
2024/01/01 01:02:19;;;;;;;23.17;7.88;;;9.60;99.90;;;;;;4130876;28;20060;-62
2024/01/01 01:04:20;;;;;;;17.83;8.40;;;9.70;99.90;;;;;;4135825;28;20041;-63
2024/01/01 01:06:20;;;;;;;19.05;8.48;;;9.70;99.90;;;;;;4128814;28;20097;-62
2024/01/01 01:08:21;;;;;;;20.55;7.90;;;9.70;99.90;;;;;;4128648;28;20140;-63
2024/01/01 01:10:22;;;;;;;19.95;8.15;;;9.60;99.90;;;;;;4134232;28;20038;-63
2024/01/01 01:12:23;;;;;;;18.23;7.35;;;9.70;99.90;;;;;;4138731;28;20082;-64
2024/01/01 01:14:23;;;;;;;18.83;7.85;;;9.70;99.90;;;;;;4139960;28;20030;-63
2024/01/01 01:16:24;;;;;;;16.85;7.85;;;9.70;99.90;;;;;;4138711;28;20038;-63
2024/01/01 01:18:24;;;;;;;15.75;6.80;;;9.60;99.90;;;;;;4137908;28;20602;-63
2024/01/01 01:20:25;;;;;;;16.02;7.22;;;9.60;99.90;;;;;;4141419;28;20038;-63
2024/01/01 01:22:26;;;;;;;20.42;7.15;;;9.60;99.90;;;;;;4139441;28;20053;-63
2024/01/01 01:24:26;;;;;;;18.40;6.75;;;9.60;99.90;;;;;;4140736;28;20037;-63
2024/01/01 01:26:27;;;;;;;18.10;6.38;;;9.60;99.90;;;;;;4140294;28;20042;-63
2024/01/01 01:28:28;;;;;;;14.30;5.63;;;9.60;99.90;;;;;;4139449;28;20531;-63
2024/01/01 01:30:28;;;;;;;15.85;5.88;;;9.60;99.90;;;;;;4136683;28;20568;-63
2024/01/01 01:32:29;;;;;;;11.23;4.88;;;9.60;99.90;;;;;;4143059;28;20045;-63
2024/01/01 01:34:30;;;;;;;12.35;5.30;;;9.60;99.90;;;;;;4142757;28;20103;-63
2024/01/01 01:36:30;;;;;;;9.77;4.35;;;9.50;99.90;;;;;;4137202;28;20041;-63
2024/01/01 01:38:34;;;;;;;12.35;4.82;;;9.50;99.90;;;;;;4137443;28;20073;-63
2024/01/01 01:40:34;;;;;;;11.88;4.15;;;9.50;99.90;;;;;;4139460;28;20122;-63
2024/01/01 01:42:35;;;;;;;7.88;3.50;;;9.50;99.90;;;;;;4141198;28;20038;-64
2024/01/01 01:44:36;;;;;;;8.30;3.08;;;9.40;99.90;;;;;;4139677;28;20042;-64
2024/01/01 01:46:37;;;;;;;8.57;2.72;;;9.40;99.90;;;;;;4141949;28;20073;-65
2024/01/01 01:48:37;;;;;;;12.98;3.38;;;9.30;99.90;;;;;;4143604;28;20057;-64
2024/01/01 01:50:38;;;;;;;11.10;3.45;;;9.20;99.90;;;;;;4141185;28;20434;-64
2024/01/01 01:52:39;;;;;;;11.82;2.78;;;9.10;99.90;;;;;;4142377;28;20053;-64
2024/01/01 01:54:40;;;;;;;6.50;2.00;;;9.00;99.90;;;;;;4142514;28;20056;-64
2024/01/01 01:56:41;;;;;;;7.35;2.88;;;9.10;99.90;;;;;;4141520;28;20050;-64
2024/01/01 01:58:42;;;;;;;11.02;2.47;;;9.00;99.90;;;;;;4138318;28;20124;-64
2024/01/01 02:00:45;;;;;;;9.43;2.95;;;8.90;99.90;;;;;;4141069;28;20079;-64
2024/01/01 02:02:47;;;;;;;11.68;2.80;;;8.90;99.90;;;;;;4143165;28;20507;-71
2024/01/01 02:04:47;;;;;;;11.93;2.80;;;8.90;99.90;;;;;;4142203;28;20474;-71
2024/01/01 02:06:48;;;;;;;11.27;2.55;;;8.80;99.90;;;;;;4140090;28;20046;-71
2024/01/01 02:08:48;;;;;;;7.40;2.05;;;8.70;99.90;;;;;;4140377;28;20052;-71
2024/01/01 02:10:49;;;;;;;7.55;2.30;;;8.60;99.90;;;;;;4142667;28;20505;-71
2024/01/01 02:12:50;;;;;;;7.38;2.28;;;8.60;99.90;;;;;;4141055;28;20052;-71
2024/01/01 02:14:50;;;;;;;8.05;2.08;;;8.50;99.90;;;;;;4142516;28;20461;-71
2024/01/01 02:16:51;;;;;;;6.82;1.65;;;8.50;99.90;;;;;;4142721;28;20065;-71
2024/01/01 02:18:51;;;;;;;7.38;1.95;;;8.40;99.90;;;;;;4141431;28;20094;-72
2024/01/01 02:20:52;;;;;;;8.00;2.42;;;8.40;99.90;;;;;;4139824;28;20042;-71
2024/01/01 02:22:55;;;;;;;8.18;2.03;;;8.40;99.90;;;;;;4142370;28;20062;-71
2024/01/01 02:24:56;;;;;;;12.40;2.22;;;8.40;99.90;;;;;;4141709;28;20038;-71
2024/01/01 02:26:56;;;;;;;9.70;2.28;;;8.30;99.90;;;;;;4138156;28;20116;-71
2024/01/01 02:28:57;;;;;;;9.05;2.08;;;8.30;99.90;;;;;;4142734;28;20053;-70
2024/01/01 02:30:57;;;;;;;11.15;2.85;;;8.30;99.90;;;;;;4139907;28;20060;-71
2024/01/01 02:32:58;;;;;;;8.60;1.98;;;8.30;99.90;;;;;;4142384;28;20095;-70
2024/01/01 02:34:58;;;;;;;11.05;2.38;;;8.30;99.90;;;;;;4140103;28;20034;-71
2024/01/01 02:36:59;;;;;;;10.65;2.20;;;8.30;99.90;;;;;;4142833;28;20131;-71
2024/01/01 02:38:59;;;;;;;10.40;2.53;;;8.30;99.90;;;;;;4138926;28;20042;-70
2024/01/01 02:41:00;;;;;;;8.77;2.17;;;8.30;99.90;;;;;;4142427;28;20041;-70
2024/01/01 02:43:01;;;;;;;6.43;1.50;;;8.30;99.90;;;;;;4141829;28;20034;-70
2024/01/01 02:45:02;;;;;;;8.00;2.08;;;8.30;99.90;;;;;;4142408;28;20132;-71
2024/01/01 02:47:03;;;;;;;15.07;2.45;;;8.30;99.90;;;;;;4141174;28;20093;-71
2024/01/01 02:49:03;;;;;;;7.22;2.45;;;8.30;99.90;;;;;;4141266;28;20033;-70
2024/01/01 02:51:04;;;;;;;12.07;2.47;;;8.30;99.90;;;;;;4141065;28;20088;-70
2024/01/01 02:53:05;;;;;;;10.77;2.35;;;8.30;99.90;;;;;;4141961;28;20022;-71
2024/01/01 02:55:05;;;;;;;6.80;2.05;;;8.30;99.90;;;;;;4142253;28;20057;-71
2024/01/01 02:57:06;;;;;;;10.40;2.33;;;8.30;99.90;;;;;;4140773;28;20030;-71
2024/01/01 02:59:07;;;;;;;9.80;2.40;;;8.30;99.90;;;;;;4141020;28;20509;-71
2024/01/01 03:01:07;;;;;;;8.77;2.20;;;8.30;99.90;;;;;;4139910;28;20041;-70
2024/01/01 03:03:08;;;;;;;8.55;2.10;;;8.40;99.90;;;;;;4142351;28;20034;-71
2024/01/01 03:05:09;;;;;;;13.73;2.47;;;8.30;99.90;;;;;;4140600;28;20413;-72
2024/01/01 03:07:09;;;;;;;13.07;2.80;;;8.30;99.90;;;;;;4134339;28;20164;-70
2024/01/01 03:09:10;;;;;;;8.13;2.53;;;8.30;99.90;;;;;;4140307;28;20038;-70
2024/01/01 03:11:11;;;;;;;10.20;2.28;;;8.30;99.90;;;;;;4138497;28;20042;-79
2024/01/01 03:13:12;;;;;;;10.52;2.25;;;8.30;99.90;;;;;;4135185;28;20041;-68
2024/01/01 03:15:13;;;;;;;17.02;3.00;;;8.30;99.90;;;;;;4132140;28;20095;-68
2024/01/01 03:17:14;;;;;;;12.00;2.55;;;8.30;99.90;;;;;;4139567;28;20039;-68
2024/01/01 03:19:14;;;;;;;16.73;3.00;;;8.30;99.90;;;;;;4137562;28;20494;-68
2024/01/01 03:21:15;;;;;;;9.32;2.10;;;8.30;99.90;;;;;;4132771;28;20565;-68
2024/01/01 03:23:16;;;;;;;14.73;2.75;;;8.30;99.90;;;;;;4139613;28;20030;-68
2024/01/01 03:25:16;;;;;;;10.52;2.92;;;8.40;99.90;;;;;;4134944;28;20041;-68
2024/01/01 03:27:17;;;;;;;11.38;2.50;;;8.40;99.90;;;;;;4137992;28;20125;-68
2024/01/01 03:29:17;;;;;;;16.88;2.83;;;8.30;99.90;;;;;;4136223;28;20564;-68
2024/01/01 03:31:18;;;;;;;16.08;2.70;;;8.40;99.90;;;;;;4140151;28;20061;-68
2024/01/01 03:33:19;;;;;;;9.35;1.98;;;8.30;99.90;;;;;;4142566;28;20029;-68
2024/01/01 03:35:19;;;;;;;17.77;3.20;;;8.40;99.90;;;;;;4136496;28;20049;-68
2024/01/01 03:37:20;;;;;;;10.35;2.42;;;8.40;99.90;;;;;;4132963;28;20050;-68
2024/01/01 03:39:21;;;;;;;13.95;2.72;;;8.40;99.90;;;;;;4135155;28;20509;-68
2024/01/01 03:41:24;;;;;;;9.98;2.22;;;8.30;99.90;;;;;;4135841;28;20022;-68
2024/01/01 03:43:24;;;;;;;13.55;2.80;;;8.40;99.90;;;;;;4140317;28;20108;-69
2024/01/01 03:45:25;;;;;;;9.98;2.70;;;8.40;99.90;;;;;;4136070;28;20041;-68
2024/01/01 03:47:26;;;;;;;12.13;2.75;;;8.40;99.90;;;;;;4140386;28;20069;-68
2024/01/01 03:49:26;;;;;;;7.57;2.17;;;8.40;99.90;;;;;;4137276;28;20038;-68
2024/01/01 03:51:27;;;;;;;8.98;2.38;;;8.40;99.90;;;;;;4138801;28;20062;-68
2024/01/01 03:53:27;;;;;;;18.52;2.90;;;8.40;99.90;;;;;;4143397;28;20030;-68
2024/01/01 03:55:28;;;;;;;12.07;3.03;;;8.40;99.90;;;;;;4135031;28;20034;-68
2024/01/01 03:57:29;;;;;;;12.48;2.47;;;8.40;99.90;;;;;;4136544;28;20886;-68
2024/01/01 03:59:29;;;;;;;16.60;3.08;;;8.40;99.90;;;;;;4139125;28;20096;-68
2024/01/01 04:01:31;;;;;;;11.23;2.95;;;8.40;99.90;;;;;;4142724;28;20057;-68
2024/01/01 04:03:31;;;;;;;11.23;2.80;;;8.40;99.90;;;;;;4135570;28;20387;-68
2024/01/01 04:05:32;;;;;;;13.23;2.60;;;8.50;99.90;;;;;;4138385;28;20038;-68
2024/01/01 04:07:37;;;;;;;10.15;2.25;;;8.40;99.90;;;;;;4134075;28;20481;-68
2024/01/01 04:09:37;;;;;;;13.13;3.30;;;8.50;99.90;;;;;;4141434;28;20038;-69
2024/01/01 04:11:39;;;;;;;12.48;2.72;;;8.40;99.90;;;;;;4151698;28;20037;-68
2024/01/01 04:13:40;;;;;;;16.90;3.03;;;8.50;99.90;;;;;;4140856;28;20540;-68
2024/01/01 04:15:41;;;;;;;14.45;3.00;;;8.40;99.90;;;;;;4136373;28;20045;-68
2024/01/01 04:17:41;;;;;;;18.58;2.80;;;8.50;99.90;;;;;;4136451;28;20042;-68
2024/01/01 04:19:47;;;;;;;13.77;2.88;;;8.50;99.90;;;;;;4137546;28;20088;-68
2024/01/01 04:21:48;;;;;;;14.75;2.42;;;8.50;99.90;;;;;;4133723;28;20074;-63
2024/01/01 04:23:49;;;;;;;12.27;2.88;;;8.50;99.90;;;;;;4139290;28;20030;-63
2024/01/01 04:25:49;;;;;;;12.95;3.30;;;8.50;99.90;;;;;;4131031;28;20030;-63
2024/01/01 04:27:50;;;;;;;11.27;3.20;;;8.50;99.90;;;;;;4148963;28;20105;-63
2024/01/01 04:29:50;;;;;;;13.77;2.80;;;8.50;99.90;;;;;;4133984;28;20383;-63
2024/01/01 04:31:51;;;;;;;15.52;2.70;;;8.50;99.90;;;;;;4135858;28;20033;-63
2024/01/01 04:33:52;;;;;;;15.23;2.65;;;8.50;99.90;;;;;;4139331;28;20068;-63
2024/01/01 04:35:52;;;;;;;11.00;2.80;;;8.50;99.90;;;;;;4134734;28;20038;-63
2024/01/01 04:37:53;;;;;;;10.52;2.33;;;8.50;99.90;;;;;;4137452;28;20129;-63
2024/01/01 04:39:53;;;;;;;13.57;2.50;;;8.50;99.90;;;;;;4142398;28;20034;-65
2024/01/01 04:41:54;;;;;;;15.73;3.30;;;8.50;99.90;;;;;;4139637;28;20104;-64
2024/01/01 04:43:54;;;;;;;12.82;2.95;;;8.50;99.90;;;;;;4128865;28;20133;-64
2024/01/01 04:45:55;;;;;;;21.08;3.15;;;8.50;99.90;;;;;;4134545;28;20046;-63
2024/01/01 04:47:56;;;;;;;13.10;2.75;;;8.60;99.90;;;;;;4133410;28;20490;-63
2024/01/01 04:49:56;;;;;;;18.65;3.05;;;8.60;99.90;;;;;;4138298;28;20041;-63
2024/01/01 04:51:57;;;;;;;12.02;2.08;;;8.60;99.90;;;;;;4136528;28;20064;-63
2024/01/01 04:53:57;;;;;;;8.43;2.70;;;8.60;99.90;;;;;;4141651;28;20049;-64
2024/01/01 04:55:58;;;;;;;18.50;3.22;;;8.60;99.90;;;;;;4139585;28;20500;-63
2024/01/01 04:57:58;;;;;;;18.60;3.50;;;8.70;99.90;;;;;;4137497;28;20128;-63
2024/01/01 04:59:59;;;;;;;14.38;3.05;;;8.70;99.90;;;;;;4134192;28;20049;-64
2024/01/01 05:02:00;;;;;;;10.85;2.50;;;8.60;99.90;;;;;;4133720;28;20034;-64
2024/01/01 05:04:00;;;;;;;11.88;2.40;;;8.70;99.90;;;;;;4135376;28;20034;-63
2024/01/01 05:06:01;;;;;;;8.65;2.22;;;8.70;99.90;;;;;;4139263;28;20393;-64
2024/01/01 05:08:01;;;;;;;11.43;2.38;;;8.70;99.90;;;;;;4136521;28;20042;-63
2024/01/01 05:10:03;;;;;;;13.40;2.58;;;8.70;99.90;;;;;;4137309;28;20040;-63
2024/01/01 05:12:04;;;;;;;14.85;2.70;;;8.70;99.90;;;;;;4137335;28;20045;-63
2024/01/01 05:14:04;;;;;;;11.93;2.38;;;8.70;99.90;;;;;;4135118;28;20053;-63
2024/01/01 05:16:10;;;;;;;12.30;2.38;;;8.70;99.90;;;;;;4138672;28;20026;-63
2024/01/01 05:18:10;;;;;;;6.30;2.15;;;8.70;99.90;;;;;;4136512;28;20398;-63
2024/01/01 05:20:11;;;;;;;13.77;2.72;;;8.80;99.90;;;;;;4138094;28;20048;-63
2024/01/01 05:22:11;;;;;;;13.00;2.78;;;8.70;99.90;;;;;;4137566;28;20096;-63
2024/01/01 05:24:12;;;;;;;11.98;2.72;;;8.80;99.90;;;;;;4143015;28;20036;-64
2024/01/01 05:26:13;;;;;;;15.65;3.47;;;8.80;99.90;;;;;;4140754;28;20092;-63
2024/01/01 05:28:13;;;;;;;8.27;2.70;;;8.80;99.90;;;;;;4139052;28;20052;-63
2024/01/01 05:30:14;;;;;;;9.13;2.45;;;8.80;99.90;;;;;;4138802;28;20512;-64
2024/01/01 05:32:15;;;;;;;12.95;2.90;;;8.80;99.90;;;;;;4137838;28;20382;-71
2024/01/01 05:34:16;;;;;;;11.73;2.80;;;8.80;99.90;;;;;;4148182;28;20045;-71
2024/01/01 05:36:17;;;;;;;10.35;2.50;;;8.80;99.90;;;;;;4138295;28;20034;-71
2024/01/01 05:38:19;;;;;;;8.45;2.15;;;8.80;99.90;;;;;;4137587;28;20109;-71
2024/01/01 05:40:19;;;;;;;12.50;2.30;;;8.80;99.90;;;;;;4142704;28;20072;-71
2024/01/01 05:42:20;;;;;;;13.55;2.42;;;8.80;99.90;;;;;;4144092;28;20033;-71
2024/01/01 05:44:20;;;;;;;8.88;2.30;;;8.80;99.90;;;;;;4145827;28;20038;-71
2024/01/01 05:46:21;;;;;;;9.25;2.33;;;8.80;99.90;;;;;;4146242;28;20030;-71
2024/01/01 05:48:21;;;;;;;15.77;2.50;;;8.80;99.90;;;;;;4145456;28;20049;-71
2024/01/01 05:50:23;;;;;;;8.73;2.03;;;8.80;99.90;;;;;;4139321;28;20390;-72
2024/01/01 05:52:24;;;;;;;10.52;2.40;;;8.80;99.90;;;;;;4143374;28;20041;-70
2024/01/01 05:54:24;;;;;;;10.88;2.67;;;8.80;99.90;;;;;;4144053;28;20042;-70
2024/01/01 05:56:25;;;;;;;7.80;2.55;;;8.80;99.90;;;;;;4138535;28;20042;-71
2024/01/01 05:58:25;;;;;;;8.25;2.50;;;8.80;99.90;;;;;;4140010;28;20114;-71
2024/01/01 06:00:28;;;;;;;7.80;2.10;;;8.80;99.90;;;;;;4137866;28;20495;-71
2024/01/01 06:02:29;;;;;;;12.00;2.85;;;8.90;99.90;;;;;;4139913;28;20046;-71
2024/01/01 06:04:30;;;;;;;17.05;2.90;;;8.90;99.90;;;;;;4142284;28;20034;-71
2024/01/01 06:06:30;;;;;;;10.27;2.75;;;8.90;99.90;;;;;;4137973;28;20038;-71
2024/01/01 06:08:33;;;;;;;12.07;2.42;;;8.90;99.90;;;;;;4142412;28;20482;-71
2024/01/01 06:10:34;;;;;;;9.93;2.50;;;8.80;99.90;;;;;;4138864;28;20038;-71
2024/01/01 06:12:35;;;;;;;9.73;2.22;;;8.90;99.90;;;;;;4140559;28;20046;-71
2024/01/01 06:14:35;;;;;;;10.50;3.03;;;8.80;99.90;;;;;;4142675;28;20050;-71
2024/01/01 06:16:36;;;;;;;11.18;2.88;;;8.80;99.90;;;;;;4137646;28;20386;-72
2024/01/01 06:18:36;;;;;;;10.82;2.65;;;8.90;99.90;;;;;;4138996;28;20101;-71
2024/01/01 06:20:37;;;;;;;15.20;2.75;;;8.90;99.90;;;;;;4137212;28;20065;-71
2024/01/01 06:22:38;;;;;;;9.68;2.38;;;8.90;99.90;;;;;;4135940;28;20038;-72
2024/01/01 06:24:38;;;;;;;13.05;2.38;;;8.90;99.90;;;;;;4128784;28;20128;-72
2024/01/01 06:26:39;;;;;;;11.98;2.22;;;8.80;99.90;;;;;;4138394;28;20041;-71
2024/01/01 06:28:40;;;;;;;6.85;2.00;;;8.80;99.90;;;;;;4137425;28;20034;-72
2024/01/01 06:30:41;;;;;;;9.45;1.80;;;8.70;99.90;;;;;;4139683;28;20560;-70
2024/01/01 06:32:42;;;;;;;7.45;1.85;;;8.80;99.90;;;;;;4146771;28;20050;-71
2024/01/01 06:34:44;;;;;;;2.80;1.40;;;8.70;99.90;;;;;;4140258;28;20081;-71
2024/01/01 06:36:45;;;;;;;7.45;1.95;;;8.70;99.90;;;;;;4139091;28;20061;-71
2024/01/01 06:38:45;;;;;;;7.82;2.15;;;8.70;99.90;;;;;;4141261;28;20045;-71
2024/01/01 06:40:46;;;;;;;9.38;2.03;;;8.70;99.90;;;;;;4135475;28;20038;-71
2024/01/01 06:42:47;;;;;;;7.68;2.10;;;8.70;99.90;;;;;;4140783;28;20072;-68
2024/01/01 06:44:47;;;;;;;6.43;1.90;;;8.60;99.90;;;;;;4142907;28;20049;-68
2024/01/01 06:46:48;;;;;;;7.95;1.65;;;8.60;99.90;;;;;;4139993;28;20164;-68
2024/01/01 06:48:49;;;;;;;10.13;2.42;;;8.50;99.90;;;;;;4139252;28;20413;-68
2024/01/01 06:50:49;;;;;;;9.43;2.40;;;8.50;99.90;;;;;;4141173;28;20100;-68
2024/01/01 06:52:50;;;;;;;9.90;1.95;;;8.50;99.90;;;;;;4140420;28;20125;-68
2024/01/01 06:54:50;;;;;;;8.18;2.33;;;8.50;99.90;;;;;;4139237;28;20045;-68
2024/01/01 06:56:51;;;;;;;8.45;1.73;;;8.50;99.90;;;;;;4134431;28;20121;-68
2024/01/01 06:58:52;;;;;;;8.77;2.00;;;8.40;99.90;;;;;;4157635;28;20045;-68
2024/01/01 07:00:52;;;;;;;8.90;1.90;;;8.50;99.90;;;;;;4136033;28;20038;-68
2024/01/01 07:02:54;;;;;;;6.40;2.05;;;8.50;99.90;;;;;;4140751;28;20040;-68
2024/01/01 07:04:54;;;;;;;9.77;2.33;;;8.50;99.90;;;;;;4142370;28;20127;-68
2024/01/01 07:06:56;;;;;;;6.18;1.48;;;8.50;99.90;;;;;;4141108;28;20437;-69
2024/01/01 07:08:56;;;;;;;10.38;2.53;;;8.40;99.90;;;;;;4136385;28;20041;-69
2024/01/01 07:10:57;;;;;;;11.18;2.10;;;8.40;99.90;;;;;;4140918;28;20497;-68
2024/01/01 07:12:58;;;;;;;9.70;2.30;;;8.40;99.90;;;;;;4157216;28;20516;-68
2024/01/01 07:15:00;;;;;;;9.00;2.38;;;8.40;99.90;;;;;;4137543;28;20046;-68
2024/01/01 07:17:01;;;;;;;8.80;2.33;;;8.40;99.90;;;;;;4137993;28;20121;-68
2024/01/01 07:19:02;;;;;;;9.73;2.35;;;8.50;99.90;;;;;;4142294;28;20508;-68
2024/01/01 07:21:02;;;;;;;15.88;2.80;;;8.40;99.90;;;;;;4139414;28;20309;-68
2024/01/01 07:23:03;;;;;;;7.18;1.85;;;8.40;99.90;;;;;;4141533;28;20109;-68
2024/01/01 07:25:04;;;;;;;9.02;1.50;;;8.40;99.90;;;;;;4138869;28;20061;-69
2024/01/01 07:27:05;;;;;;;10.20;2.15;;;8.40;99.90;;;;;;4136103;28;20034;-68
2024/01/01 07:29:05;;;;;;;8.02;2.35;;;8.40;99.90;;;;;;4138507;28;20097;-68
2024/01/01 07:31:06;;;;;;;8.95;1.98;;;8.40;99.90;;;;;;4141332;28;20037;-68
2024/01/01 07:33:07;;;;;;;8.75;2.30;;;8.40;99.90;;;;;;4139098;28;20513;-68
2024/01/01 07:35:08;;;;;;;6.60;2.00;;;8.40;99.90;;;;;;4139772;28;20126;-69
2024/01/01 07:37:09;;;;;;;9.23;2.08;;;8.30;99.90;;;;;;4131774;28;20461;-68
2024/01/01 07:39:10;;;;;;;6.78;1.98;;;8.30;99.90;;;;;;4135844;28;20073;-68
2024/01/01 07:41:11;;;;;;;7.07;2.08;;;8.30;99.90;;;;;;4138760;28;20045;-68
2024/01/01 07:43:12;;;;;;;7.47;2.03;;;8.30;99.90;;;;;;4132864;28;20053;-69
2024/01/01 07:45:13;;;;;;;6.05;1.77;;;8.30;99.90;;;;;;4128384;28;20414;-68
2024/01/01 07:47:15;;;;;;;8.77;2.13;;;8.20;99.90;;;;;;4135276;28;20045;-68
2024/01/01 07:49:16;;;;;;;8.68;2.03;;;8.30;99.90;;;;;;4131187;28;20030;-68
2024/01/01 07:51:17;;;;;;;12.32;2.50;;;8.30;99.90;;;;;;4140317;28;20121;-71
2024/01/01 07:53:17;;;;;;;8.27;1.92;;;8.20;99.90;;;;;;4142735;28;20065;-68
2024/01/01 07:55:18;;;;;;;8.52;2.20;;;8.30;99.90;;;;;;4146336;28;20378;-68
2024/01/01 07:57:19;;;;;;;8.02;1.88;;;8.20;99.90;;;;;;4145315;28;20026;-68
2024/01/01 07:59:19;;;;;;;9.00;2.10;;;8.30;99.90;;;;;;4146810;28;20117;-68
2024/01/01 08:01:21;;;;;;;8.23;2.13;;;8.30;99.90;;;;;;4146023;28;20034;-68
2024/01/01 08:03:21;;;;;;;8.90;1.90;;;8.30;99.90;;;;;;4146727;28;20022;-67
2024/01/01 08:05:22;;;;;;;6.22;1.98;;;8.30;99.90;;;;;;4145922;28;20041;-68
2024/01/01 08:07:22;;;;;;;7.53;1.77;;;8.30;99.90;;;;;;4146586;28;20029;-68
2024/01/01 08:09:23;;;;;;;9.88;1.80;;;8.30;99.90;;;;;;4146447;28;20034;-68
2024/01/01 08:11:24;;;;;;;9.23;1.67;;;8.40;99.90;;;;;;4140166;28;20053;-68
2024/01/01 08:13:24;;;;;;;7.90;1.90;;;8.30;99.90;;;;;;4146445;28;20034;-67
2024/01/01 08:15:25;;;;;;;8.68;1.92;;;8.30;99.90;;;;;;4146025;28;20092;-67
2024/01/01 08:17:25;;;;;;;7.75;2.00;;;8.40;99.90;;;;;;4146509;28;20042;-67
2024/01/01 08:19:26;;;;;;;5.35;1.60;;;8.40;99.90;;;;;;4146302;28;20026;-67
2024/01/01 08:21:27;;;;;;;8.00;1.58;;;8.30;99.90;;;;;;4145306;28;20034;-67
2024/01/01 08:23:27;;;;;;;7.68;1.48;;;8.40;99.90;;;;;;4144908;28;20034;-68
2024/01/01 08:25:28;;;;;;;5.35;1.70;;;8.30;99.90;;;;;;4143598;28;20088;-69
2024/01/01 08:27:28;;;;;;;5.15;1.65;;;8.40;99.90;;;;;;4146337;28;20540;-69
2024/01/01 08:29:29;;;;;;;4.35;1.45;;;8.40;99.90;;;;;;4146442;28;20470;-68
2024/01/01 08:31:29;;;;;;;6.63;1.80;;;8.40;99.90;;;;;;4145809;28;20497;-68
2024/01/01 08:33:30;;;;;;;10.40;1.77;;;8.40;99.90;;;;;;4144876;28;20091;-68
2024/01/01 08:35:31;;;;;;;6.43;1.85;;;8.40;99.90;;;;;;4145848;28;20082;-68
2024/01/01 08:37:32;;;;;;;8.68;1.85;;;8.40;99.90;;;;;;4145674;28;20069;-68
2024/01/01 08:39:32;;;;;;;9.43;2.20;;;8.40;99.90;;;;;;4145714;28;20030;-68
2024/01/01 08:41:33;;;;;;;11.93;1.83;;;8.40;99.90;;;;;;4145180;28;20030;-67
2024/01/01 08:43:33;;;;;;;7.45;1.55;;;8.40;99.90;;;;;;4144551;28;20022;-68
2024/01/01 08:45:34;;;;;;;5.65;1.95;;;8.40;99.90;;;;;;4143063;28;20036;-68
2024/01/01 08:47:35;;;;;;;5.45;1.77;;;8.30;99.90;;;;;;4143785;28;20049;-68
2024/01/01 08:49:35;;;;;;;5.35;1.58;;;8.40;99.90;;;;;;4143906;28;20033;-68
2024/01/01 08:51:36;;;;;;;6.85;1.90;;;8.30;99.90;;;;;;4142779;28;20030;-68
2024/01/01 08:53:36;;;;;;;6.03;1.48;;;8.40;99.90;;;;;;4144114;28;20030;-68
2024/01/01 08:55:37;;;;;;;8.27;1.52;;;8.40;99.90;;;;;;4145412;28;20072;-68
2024/01/01 08:57:39;;;;;;;6.43;1.85;;;8.30;99.90;;;;;;4146086;28;20054;-68
2024/01/01 08:59:40;;;;;;;12.40;2.53;;;8.40;99.90;;;;;;4146141;28;20026;-68
2024/01/01 09:01:45;;;;;;;4.70;1.45;;;8.40;99.90;;;;;;4145793;28;20038;-68
2024/01/01 09:03:45;;;;;;;6.07;1.58;;;8.40;99.90;;;;;;4145665;28;20034;-65
2024/01/01 09:05:46;;;;;;;4.95;1.45;;;8.40;99.90;;;;;;4145654;28;20104;-65
2024/01/01 09:07:47;;;;;;;7.28;1.38;;;8.40;99.90;;;;;;4146015;28;20038;-65
2024/01/01 09:09:47;;;;;;;5.75;1.38;;;8.40;99.90;;;;;;4146073;28;20042;-65
2024/01/01 09:11:49;;;;;;;6.07;1.45;;;8.40;99.90;;;;;;4145718;28;20037;-68
2024/01/01 09:13:49;;;;;;;3.78;1.27;;;8.40;99.90;;;;;;4144350;28;20089;-68
2024/01/01 09:15:50;;;;;;;8.27;1.60;;;8.40;99.90;;;;;;4145236;28;20482;-69
2024/01/01 09:17:51;;;;;;;6.60;1.63;;;8.50;99.90;;;;;;4145836;28;20111;-68
2024/01/01 09:19:53;;;;;;;7.70;1.60;;;8.50;99.90;;;;;;4146038;28;20505;-68
2024/01/01 09:21:54;;;;;;;10.45;1.77;;;8.50;99.90;;;;;;4143236;28;20033;-69
2024/01/01 09:24:00;;;;;;;8.60;2.00;;;8.50;99.90;;;;;;4139415;28;20490;-69
2024/01/01 09:26:01;;;;;;;6.50;1.52;;;8.50;99.90;;;;;;4132977;28;20034;-68
2024/01/01 09:28:01;;;;;;;6.25;2.05;;;8.50;99.90;;;;;;4139471;28;20122;-69
2024/01/01 09:30:02;;;;;;;4.95;1.58;;;8.50;99.90;;;;;;4136153;28;20425;-69
2024/01/01 09:32:03;;;;;;;4.05;1.70;;;8.50;99.90;;;;;;4134819;28;20065;-69
2024/01/01 09:34:06;;;;;;;5.78;1.80;;;8.50;99.90;;;;;;4139792;28;20045;-69
2024/01/01 09:36:07;;;;;;;4.38;1.88;;;8.50;99.90;;;;;;4138346;28;20034;-69
2024/01/01 09:38:07;;;;;;;6.43;1.85;;;8.50;99.90;;;;;;4128967;28;20447;-69
2024/01/01 09:40:10;;;;;;;8.15;1.83;;;8.50;99.90;;;;;;4135667;28;20061;-69
2024/01/01 09:42:11;;;;;;;9.65;1.58;;;8.50;99.90;;;;;;4137146;28;20092;-69
2024/01/01 09:44:11;;;;;;;5.97;1.55;;;8.50;99.90;;;;;;4140769;28;20445;-69
2024/01/01 09:46:14;;;;;;;7.25;1.85;;;8.50;99.90;;;;;;4138902;28;20893;-68
2024/01/01 09:48:15;;;;;;;5.38;1.80;;;8.50;99.90;;;;;;4135672;28;20112;-69
2024/01/01 09:50:15;;;;;;;5.05;1.70;;;8.50;99.90;;;;;;4137061;28;20045;-69
2024/01/01 09:52:17;;;;;;;5.75;1.75;;;8.50;99.90;;;;;;4133242;28;20042;-69
2024/01/01 09:54:17;;;;;;;6.70;1.50;;;8.50;99.90;;;;;;4137124;28;20049;-69
2024/01/01 09:56:18;;;;;;;12.93;2.35;;;8.50;99.90;;;;;;4138427;28;20409;-68
2024/01/01 09:58:19;;;;;;;7.22;1.73;;;8.50;99.90;;;;;;4154964;28;20094;-69
2024/01/01 10:00:24;;;;;;;11.60;2.15;;;8.60;99.90;;;;;;4138758;28;20046;-69
2024/01/01 10:02:24;;;;;;;6.72;2.20;;;8.60;99.90;;;;;;4137909;28;20647;-68
2024/01/01 10:04:25;;;;;;;9.77;2.38;;;8.50;99.90;;;;;;4139546;28;20166;-68
2024/01/01 10:06:26;;;;;;;5.97;1.63;;;8.60;99.90;;;;;;4137902;28;20050;-68
2024/01/01 10:08:28;;;;;;;13.30;2.28;;;8.60;99.90;;;;;;4136642;28;20575;-68
2024/01/01 10:10:28;;;;;;;6.47;1.60;;;8.70;99.90;;;;;;4136210;28;20041;-69
2024/01/01 10:12:29;;;;;;;9.18;2.05;;;8.60;99.90;;;;;;4138372;28;20100;-69
2024/01/01 10:14:30;;;;;;;7.57;1.90;;;8.60;99.90;;;;;;4141529;28;20026;-69
2024/01/01 10:16:31;;;;;;;10.45;2.10;;;8.60;99.90;;;;;;4140141;28;20046;-69
2024/01/01 10:18:31;;;;;;;8.00;1.90;;;8.70;99.90;;;;;;4138305;28;20121;-69
2024/01/01 10:20:32;;;;;;;7.88;2.05;;;8.70;99.90;;;;;;4137922;28;20050;-69
2024/01/01 10:22:33;;;;;;;8.60;1.98;;;8.70;99.90;;;;;;4141129;28;20073;-73
2024/01/01 10:24:33;;;;;;;8.60;1.60;;;8.70;99.90;;;;;;4153105;28;20045;-74
2024/01/01 10:26:40;;;;;;;5.68;1.50;;;8.70;99.90;;;;;;4138868;28;20050;-74
2024/01/01 10:28:41;;;;;;;6.88;1.80;;;8.70;99.90;;;;;;4139524;28;20509;-73
2024/01/01 10:30:46;;;;;;;5.78;1.45;;;8.70;99.90;;;;;;4129572;28;20046;-73
2024/01/01 10:32:48;;;;;;;6.38;2.22;;;8.70;99.90;;;;;;4129074;28;20041;-74
2024/01/01 10:34:49;;;;;;;5.18;1.52;;;8.80;99.90;;;;;;4122137;28;20050;-74